Terminal Aerodrome Forecast
Issued by NWS

Home | Current Version | Previous Version | Text Only | Print | Product List | Glossary On
Versions: 1 2 3 4 5 6 7 8 9 10 11 12 13 14 15 16
086
FTUS43 KOAX 210911 AAA
TAFCDR
TAF AMD
KCDR 210911Z 2109/2206 16004KT P6SM SCT016 BKN040
     FM211600 16007KT P6SM BKN025
     FM220000 16008KT P6SM SCT025=

USA.gov is the U.S. government's official web portal to all federal, state and local government web resources and services.